sensor_id;sensor_type;location;lat;lon;timestamp;P1;durP1;ratioP1;P2;durP2;ratioP2
7557;SDS011;3820;51.098;13.716;2023-11-22T00:01:55;19.80;;;8.80;;
7557;SDS011;3820;51.098;13.716;2023-11-22T00:04:21;18.43;;;9.10;;
7557;SDS011;3820;51.098;13.716;2023-11-22T00:06:48;22.70;;;8.93;;
7557;SDS011;3820;51.098;13.716;2023-11-22T00:09:15;17.30;;;9.57;;
7557;SDS011;3820;51.098;13.716;2023-11-22T00:11:42;16.07;;;7.80;;
7557;SDS011;3820;51.098;13.716;2023-11-22T00:14:08;21.00;;;9.20;;
7557;SDS011;3820;51.098;13.716;2023-11-22T00:16:35;15.63;;;8.73;;
7557;SDS011;3820;51.098;13.716;2023-11-22T00:19:03;15.87;;;7.77;;
7557;SDS011;3820;51.098;13.716;2023-11-22T00:21:32;18.63;;;8.20;;
7557;SDS011;3820;51.098;13.716;2023-11-22T00:23:59;15.67;;;8.07;;
7557;SDS011;3820;51.098;13.716;2023-11-22T00:26:25;22.43;;;9.70;;
7557;SDS011;3820;51.098;13.716;2023-11-22T00:28:52;18.17;;;8.33;;
7557;SDS011;3820;51.098;13.716;2023-11-22T00:31:20;19.17;;;8.07;;
7557;SDS011;3820;51.098;13.716;2023-11-22T00:33:47;17.60;;;8.30;;
7557;SDS011;3820;51.098;13.716;2023-11-22T00:36:13;18.20;;;8.57;;
7557;SDS011;3820;51.098;13.716;2023-11-22T00:38:40;16.43;;;8.63;;
7557;SDS011;3820;51.098;13.716;2023-11-22T00:41:06;18.50;;;8.90;;
7557;SDS011;3820;51.098;13.716;2023-11-22T00:43:34;17.97;;;9.30;;
7557;SDS011;3820;51.098;13.716;2023-11-22T00:46:00;20.40;;;8.83;;
7557;SDS011;3820;51.098;13.716;2023-11-22T00:48:28;22.37;;;9.77;;
7557;SDS011;3820;51.098;13.716;2023-11-22T00:50:55;22.67;;;9.37;;
7557;SDS011;3820;51.098;13.716;2023-11-22T00:53:22;18.63;;;8.77;;
7557;SDS011;3820;51.098;13.716;2023-11-22T00:55:49;20.27;;;9.33;;
7557;SDS011;3820;51.098;13.716;2023-11-22T00:58:16;18.83;;;9.53;;
7557;SDS011;3820;51.098;13.716;2023-11-22T01:00:43;21.30;;;8.20;;
7557;SDS011;3820;51.098;13.716;2023-11-22T01:03:10;17.50;;;9.47;;
7557;SDS011;3820;51.098;13.716;2023-11-22T01:05:39;19.70;;;8.37;;
7557;SDS011;3820;51.098;13.716;2023-11-22T01:08:06;17.80;;;8.83;;
7557;SDS011;3820;51.098;13.716;2023-11-22T01:10:34;15.40;;;8.17;;
7557;SDS011;3820;51.098;13.716;2023-11-22T01:13:02;21.07;;;8.67;;
7557;SDS011;3820;51.098;13.716;2023-11-22T01:15:28;20.37;;;8.40;;
7557;SDS011;3820;51.098;13.716;2023-11-22T01:17:55;17.30;;;8.13;;
7557;SDS011;3820;51.098;13.716;2023-11-22T01:20:22;22.83;;;9.07;;
7557;SDS011;3820;51.098;13.716;2023-11-22T01:22:50;17.53;;;9.13;;
7557;SDS011;3820;51.098;13.716;2023-11-22T01:25:16;20.23;;;9.33;;
7557;SDS011;3820;51.098;13.716;2023-11-22T01:27:43;23.17;;;8.77;;
7557;SDS011;3820;51.098;13.716;2023-11-22T01:30:10;22.50;;;9.80;;
7557;SDS011;3820;51.098;13.716;2023-11-22T01:32:38;23.00;;;9.40;;
7557;SDS011;3820;51.098;13.716;2023-11-22T01:35:05;20.93;;;9.83;;
7557;SDS011;3820;51.098;13.716;2023-11-22T01:37:32;19.73;;;9.13;;
7557;SDS011;3820;51.098;13.716;2023-11-22T01:39:59;20.13;;;9.40;;
7557;SDS011;3820;51.098;13.716;2023-11-22T01:42:25;22.77;;;9.30;;
7557;SDS011;3820;51.098;13.716;2023-11-22T01:44:52;17.60;;;8.77;;
7557;SDS011;3820;51.098;13.716;2023-11-22T01:47:21;19.33;;;8.40;;
7557;SDS011;3820;51.098;13.716;2023-11-22T01:49:48;20.20;;;10.27;;
7557;SDS011;3820;51.098;13.716;2023-11-22T01:52:15;18.80;;;7.87;;
7557;SDS011;3820;51.098;13.716;2023-11-22T01:54:42;18.17;;;8.93;;
7557;SDS011;3820;51.098;13.716;2023-11-22T01:57:10;17.60;;;8.20;;
7557;SDS011;3820;51.098;13.716;2023-11-22T01:59:37;18.90;;;8.80;;
7557;SDS011;3820;51.098;13.716;2023-11-22T02:02:04;19.93;;;9.03;;
7557;SDS011;3820;51.098;13.716;2023-11-22T02:04:31;17.13;;;7.67;;
7557;SDS011;3820;51.098;13.716;2023-11-22T02:06:58;18.53;;;8.97;;
7557;SDS011;3820;51.098;13.716;2023-11-22T02:09:24;17.13;;;8.57;;
7557;SDS011;3820;51.098;13.716;2023-11-22T02:11:51;16.77;;;8.30;;
7557;SDS011;3820;51.098;13.716;2023-11-22T02:14:19;16.83;;;7.87;;
7557;SDS011;3820;51.098;13.716;2023-11-22T02:16:46;17.53;;;8.63;;
7557;SDS011;3820;51.098;13.716;2023-11-22T02:19:16;17.77;;;8.93;;
7557;SDS011;3820;51.098;13.716;2023-11-22T02:21:43;15.47;;;8.03;;
7557;SDS011;3820;51.098;13.716;2023-11-22T02:24:11;20.33;;;8.37;;
7557;SDS011;3820;51.098;13.716;2023-11-22T02:26:42;15.53;;;8.03;;
7557;SDS011;3820;51.098;13.716;2023-11-22T02:29:11;15.53;;;7.77;;
7557;SDS011;3820;51.098;13.716;2023-11-22T02:31:41;21.87;;;7.93;;
7557;SDS011;3820;51.098;13.716;2023-11-22T02:34:09;19.97;;;9.80;;
7557;SDS011;3820;51.098;13.716;2023-11-22T02:36:38;15.60;;;7.70;;
7557;SDS011;3820;51.098;13.716;2023-11-22T02:39:05;17.97;;;7.97;;
7557;SDS011;3820;51.098;13.716;2023-11-22T02:41:33;16.03;;;7.47;;
7557;SDS011;3820;51.098;13.716;2023-11-22T02:44:02;21.43;;;8.30;;
7557;SDS011;3820;51.098;13.716;2023-11-22T02:46:30;19.00;;;8.57;;
7557;SDS011;3820;51.098;13.716;2023-11-22T02:48:58;16.43;;;8.07;;
7557;SDS011;3820;51.098;13.716;2023-11-22T02:51:25;14.27;;;6.63;;
7557;SDS011;3820;51.098;13.716;2023-11-22T02:53:53;14.50;;;7.60;;
7557;SDS011;3820;51.098;13.716;2023-11-22T02:56:20;17.50;;;7.67;;
7557;SDS011;3820;51.098;13.716;2023-11-22T02:58:47;18.33;;;8.73;;
7557;SDS011;3820;51.098;13.716;2023-11-22T03:01:15;25.27;;;9.53;;
7557;SDS011;3820;51.098;13.716;2023-11-22T03:03:42;19.57;;;9.00;;
7557;SDS011;3820;51.098;13.716;2023-11-22T03:06:09;16.07;;;7.93;;
7557;SDS011;3820;51.098;13.716;2023-11-22T03:08:50;18.43;;;8.43;;
7557;SDS011;3820;51.098;13.716;2023-11-22T03:11:17;19.00;;;9.17;;
7557;SDS011;3820;51.098;13.716;2023-11-22T03:13:46;17.23;;;7.87;;
7557;SDS011;3820;51.098;13.716;2023-11-22T03:16:13;15.10;;;8.20;;
7557;SDS011;3820;51.098;13.716;2023-11-22T03:18:40;21.17;;;9.03;;
7557;SDS011;3820;51.098;13.716;2023-11-22T03:21:08;19.27;;;8.53;;
7557;SDS011;3820;51.098;13.716;2023-11-22T03:23:36;20.10;;;8.53;;
7557;SDS011;3820;51.098;13.716;2023-11-22T03:26:02;21.07;;;8.37;;
7557;SDS011;3820;51.098;13.716;2023-11-22T03:28:30;18.37;;;8.60;;
7557;SDS011;3820;51.098;13.716;2023-11-22T03:30:57;21.90;;;7.70;;
7557;SDS011;3820;51.098;13.716;2023-11-22T03:33:25;17.60;;;6.90;;
7557;SDS011;3820;51.098;13.716;2023-11-22T03:35:52;16.80;;;7.47;;
7557;SDS011;3820;51.098;13.716;2023-11-22T03:38:19;18.13;;;8.40;;
7557;SDS011;3820;51.098;13.716;2023-11-22T03:40:47;20.03;;;8.20;;
7557;SDS011;3820;51.098;13.716;2023-11-22T03:43:14;13.53;;;6.73;;
7557;SDS011;3820;51.098;13.716;2023-11-22T03:45:40;16.60;;;7.87;;
7557;SDS011;3820;51.098;13.716;2023-11-22T03:48:07;17.43;;;7.97;;
7557;SDS011;3820;51.098;13.716;2023-11-22T03:50:34;17.30;;;8.60;;
7557;SDS011;3820;51.098;13.716;2023-11-22T03:53:00;17.97;;;8.53;;
7557;SDS011;3820;51.098;13.716;2023-11-22T03:55:27;21.20;;;8.43;;
7557;SDS011;3820;51.098;13.716;2023-11-22T03:57:53;19.93;;;8.77;;
7557;SDS011;3820;51.098;13.716;2023-11-22T04:00:20;15.30;;;8.07;;
7557;SDS011;3820;51.098;13.716;2023-11-22T04:02:47;18.80;;;8.63;;
7557;SDS011;3820;51.098;13.716;2023-11-22T04:05:14;17.63;;;8.50;;
7557;SDS011;3820;51.098;13.716;2023-11-22T04:07:41;19.63;;;8.07;;
7557;SDS011;3820;51.098;13.716;2023-11-22T04:10:08;19.97;;;7.80;;
7557;SDS011;3820;51.098;13.716;2023-11-22T04:12:35;17.23;;;8.37;;
7557;SDS011;3820;51.098;13.716;2023-11-22T04:15:03;18.60;;;8.77;;
7557;SDS011;3820;51.098;13.716;2023-11-22T04:17:31;17.07;;;7.70;;
7557;SDS011;3820;51.098;13.716;2023-11-22T04:19:59;17.50;;;8.93;;
7557;SDS011;3820;51.098;13.716;2023-11-22T04:22:26;19.70;;;9.27;;
7557;SDS011;3820;51.098;13.716;2023-11-22T04:24:52;18.17;;;7.67;;
7557;SDS011;3820;51.098;13.716;2023-11-22T04:27:19;20.87;;;8.03;;
7557;SDS011;3820;51.098;13.716;2023-11-22T04:29:46;20.63;;;9.23;;
7557;SDS011;3820;51.098;13.716;2023-11-22T04:32:13;18.33;;;8.73;;
7557;SDS011;3820;51.098;13.716;2023-11-22T04:34:40;16.80;;;9.23;;
7557;SDS011;3820;51.098;13.716;2023-11-22T04:37:07;19.03;;;9.03;;
7557;SDS011;3820;51.098;13.716;2023-11-22T04:39:33;15.67;;;8.00;;
7557;SDS011;3820;51.098;13.716;2023-11-22T04:42:00;22.47;;;9.07;;
7557;SDS011;3820;51.098;13.716;2023-11-22T04:44:27;17.33;;;8.33;;
7557;SDS011;3820;51.098;13.716;2023-11-22T04:46:54;17.23;;;7.97;;
7557;SDS011;3820;51.098;13.716;2023-11-22T04:49:21;17.73;;;7.70;;
7557;SDS011;3820;51.098;13.716;2023-11-22T04:51:47;19.57;;;8.87;;
7557;SDS011;3820;51.098;13.716;2023-11-22T04:54:16;15.53;;;7.93;;
7557;SDS011;3820;51.098;13.716;2023-11-22T04:56:43;18.43;;;8.20;;
7557;SDS011;3820;51.098;13.716;2023-11-22T04:59:10;16.27;;;7.93;;
7557;SDS011;3820;51.098;13.716;2023-11-22T05:01:37;15.90;;;8.20;;
7557;SDS011;3820;51.098;13.716;2023-11-22T05:04:04;21.83;;;9.43;;
7557;SDS011;3820;51.098;13.716;2023-11-22T05:06:31;18.20;;;9.10;;
7557;SDS011;3820;51.098;13.716;2023-11-22T05:08:58;19.40;;;8.83;;
7557;SDS011;3820;51.098;13.716;2023-11-22T05:11:25;18.10;;;8.17;;
7557;SDS011;3820;51.098;13.716;2023-11-22T05:13:52;18.27;;;8.77;;
7557;SDS011;3820;51.098;13.716;2023-11-22T05:16:18;21.50;;;8.90;;
7557;SDS011;3820;51.098;13.716;2023-11-22T05:18:45;22.23;;;9.03;;
7557;SDS011;3820;51.098;13.716;2023-11-22T05:21:12;22.13;;;9.57;;
7557;SDS011;3820;51.098;13.716;2023-11-22T05:23:39;18.17;;;8.93;;
7557;SDS011;3820;51.098;13.716;2023-11-22T05:26:09;21.43;;;9.73;;
7557;SDS011;3820;51.098;13.716;2023-11-22T05:28:36;21.27;;;9.50;;
7557;SDS011;3820;51.098;13.716;2023-11-22T05:31:03;20.80;;;9.60;;
7557;SDS011;3820;51.098;13.716;2023-11-22T05:33:29;16.57;;;9.00;;
7557;SDS011;3820;51.098;13.716;2023-11-22T05:35:58;21.07;;;9.97;;
7557;SDS011;3820;51.098;13.716;2023-11-22T05:38:25;16.80;;;9.27;;
7557;SDS011;3820;51.098;13.716;2023-11-22T05:40:53;20.47;;;9.37;;
7557;SDS011;3820;51.098;13.716;2023-11-22T05:43:19;22.10;;;9.87;;
7557;SDS011;3820;51.098;13.716;2023-11-22T05:45:55;21.20;;;10.13;;
7557;SDS011;3820;51.098;13.716;2023-11-22T05:48:22;21.80;;;10.43;;
7557;SDS011;3820;51.098;13.716;2023-11-22T05:50:48;20.97;;;9.80;;
7557;SDS011;3820;51.098;13.716;2023-11-22T05:53:15;21.83;;;9.87;;
7557;SDS011;3820;51.098;13.716;2023-11-22T05:55:48;20.40;;;9.60;;
7557;SDS011;3820;51.098;13.716;2023-11-22T05:58:16;17.20;;;8.30;;
7557;SDS011;3820;51.098;13.716;2023-11-22T06:00:43;25.70;;;10.17;;
7557;SDS011;3820;51.098;13.716;2023-11-22T06:03:11;21.87;;;10.00;;
7557;SDS011;3820;51.098;13.716;2023-11-22T06:05:38;20.37;;;9.70;;
7557;SDS011;3820;51.098;13.716;2023-11-22T06:08:06;18.67;;;9.93;;
7557;SDS011;3820;51.098;13.716;2023-11-22T06:10:32;25.20;;;10.33;;
7557;SDS011;3820;51.098;13.716;2023-11-22T06:13:00;21.70;;;9.23;;
7557;SDS011;3820;51.098;13.716;2023-11-22T06:15:27;15.67;;;8.50;;
7557;SDS011;3820;51.098;13.716;2023-11-22T06:17:57;23.03;;;10.17;;
7557;SDS011;3820;51.098;13.716;2023-11-22T06:20:24;22.53;;;10.00;;
7557;SDS011;3820;51.098;13.716;2023-11-22T06:22:53;19.47;;;8.73;;
7557;SDS011;3820;51.098;13.716;2023-11-22T06:25:20;19.37;;;8.67;;
7557;SDS011;3820;51.098;13.716;2023-11-22T06:27:46;22.80;;;10.10;;
7557;SDS011;3820;51.098;13.716;2023-11-22T06:30:13;19.53;;;9.37;;
7557;SDS011;3820;51.098;13.716;2023-11-22T06:32:40;18.80;;;9.10;;
7557;SDS011;3820;51.098;13.716;2023-11-22T06:35:09;19.10;;;9.33;;
7557;SDS011;3820;51.098;13.716;2023-11-22T06:37:38;18.90;;;9.77;;
7557;SDS011;3820;51.098;13.716;2023-11-22T06:40:04;20.53;;;9.47;;
7557;SDS011;3820;51.098;13.716;2023-11-22T06:42:32;18.50;;;9.23;;
7557;SDS011;3820;51.098;13.716;2023-11-22T06:45:00;21.20;;;9.03;;
7557;SDS011;3820;51.098;13.716;2023-11-22T06:47:27;24.77;;;9.80;;
7557;SDS011;3820;51.098;13.716;2023-11-22T06:49:54;21.40;;;9.60;;
7557;SDS011;3820;51.098;13.716;2023-11-22T06:52:20;22.63;;;9.67;;
7557;SDS011;3820;51.098;13.716;2023-11-22T06:54:47;21.50;;;9.57;;
7557;SDS011;3820;51.098;13.716;2023-11-22T06:57:14;19.43;;;9.43;;
7557;SDS011;3820;51.098;13.716;2023-11-22T06:59:41;19.30;;;9.53;;
7557;SDS011;3820;51.098;13.716;2023-11-22T07:02:08;18.90;;;9.17;;
7557;SDS011;3820;51.098;13.716;2023-11-22T07:04:35;16.23;;;8.63;;
7557;SDS011;3820;51.098;13.716;2023-11-22T07:07:02;22.40;;;9.90;;
7557;SDS011;3820;51.098;13.716;2023-11-22T07:09:30;21.70;;;9.60;;
7557;SDS011;3820;51.098;13.716;2023-11-22T07:11:57;23.97;;;9.13;;
7557;SDS011;3820;51.098;13.716;2023-11-22T07:14:25;21.13;;;9.80;;
7557;SDS011;3820;51.098;13.716;2023-11-22T07:16:52;24.47;;;10.23;;
7557;SDS011;3820;51.098;13.716;2023-11-22T07:19:20;18.23;;;9.23;;
7557;SDS011;3820;51.098;13.716;2023-11-22T07:21:47;19.27;;;8.77;;
7557;SDS011;3820;51.098;13.716;2023-11-22T07:24:15;17.80;;;8.67;;
7557;SDS011;3820;51.098;13.716;2023-11-22T07:26:42;26.37;;;10.13;;
7557;SDS011;3820;51.098;13.716;2023-11-22T07:29:09;20.77;;;9.47;;
7557;SDS011;3820;51.098;13.716;2023-11-22T07:31:36;23.70;;;9.77;;
7557;SDS011;3820;51.098;13.716;2023-11-22T07:34:02;19.63;;;9.67;;
7557;SDS011;3820;51.098;13.716;2023-11-22T07:36:29;17.63;;;9.03;;
7557;SDS011;3820;51.098;13.716;2023-11-22T07:38:57;19.80;;;9.47;;
7557;SDS011;3820;51.098;13.716;2023-11-22T07:41:23;20.23;;;9.47;;
7557;SDS011;3820;51.098;13.716;2023-11-22T07:43:50;21.20;;;9.73;;
7557;SDS011;3820;51.098;13.716;2023-11-22T07:46:17;21.83;;;10.57;;
7557;SDS011;3820;51.098;13.716;2023-11-22T07:48:45;19.43;;;9.70;;
7557;SDS011;3820;51.098;13.716;2023-11-22T07:51:14;21.43;;;10.03;;
7557;SDS011;3820;51.098;13.716;2023-11-22T07:53:43;19.30;;;8.50;;
7557;SDS011;3820;51.098;13.716;2023-11-22T07:56:10;21.40;;;9.50;;
7557;SDS011;3820;51.098;13.716;2023-11-22T07:58:38;24.73;;;9.70;;
7557;SDS011;3820;51.098;13.716;2023-11-22T08:01:05;20.43;;;8.57;;
7557;SDS011;3820;51.098;13.716;2023-11-22T08:03:39;18.13;;;8.90;;
7557;SDS011;3820;51.098;13.716;2023-11-22T08:06:10;19.20;;;9.13;;
7557;SDS011;3820;51.098;13.716;2023-11-22T08:08:37;21.17;;;9.40;;
7557;SDS011;3820;51.098;13.716;2023-11-22T08:11:06;18.27;;;8.43;;
7557;SDS011;3820;51.098;13.716;2023-11-22T08:13:41;20.37;;;9.43;;
7557;SDS011;3820;51.098;13.716;2023-11-22T08:16:14;18.17;;;8.53;;
7557;SDS011;3820;51.098;13.716;2023-11-22T08:18:41;19.90;;;10.03;;
7557;SDS011;3820;51.098;13.716;2023-11-22T08:21:10;16.33;;;9.00;;
7557;SDS011;3820;51.098;13.716;2023-11-22T08:23:37;22.80;;;9.27;;
7557;SDS011;3820;51.098;13.716;2023-11-22T08:26:04;21.23;;;9.43;;
7557;SDS011;3820;51.098;13.716;2023-11-22T08:28:32;20.27;;;10.10;;
7557;SDS011;3820;51.098;13.716;2023-11-22T08:30:58;20.80;;;9.70;;
7557;SDS011;3820;51.098;13.716;2023-11-22T08:33:25;24.77;;;9.57;;
7557;SDS011;3820;51.098;13.716;2023-11-22T08:35:52;22.53;;;9.07;;
7557;SDS011;3820;51.098;13.716;2023-11-22T08:38:24;22.53;;;9.77;;
7557;SDS011;3820;51.098;13.716;2023-11-22T08:40:54;24.03;;;10.70;;
7557;SDS011;3820;51.098;13.716;2023-11-22T08:43:23;19.93;;;8.97;;
7557;SDS011;3820;51.098;13.716;2023-11-22T08:45:52;19.00;;;9.20;;
7557;SDS011;3820;51.098;13.716;2023-11-22T08:48:30;22.07;;;10.67;;
7557;SDS011;3820;51.098;13.716;2023-11-22T08:50:57;16.60;;;9.07;;
7557;SDS011;3820;51.098;13.716;2023-11-22T08:53:24;23.20;;;9.57;;
7557;SDS011;3820;51.098;13.716;2023-11-22T08:55:51;22.53;;;9.37;;
7557;SDS011;3820;51.098;13.716;2023-11-22T08:58:20;22.97;;;9.63;;
7557;SDS011;3820;51.098;13.716;2023-11-22T09:00:47;21.13;;;9.90;;
7557;SDS011;3820;51.098;13.716;2023-11-22T09:03:14;19.20;;;8.37;;
7557;SDS011;3820;51.098;13.716;2023-11-22T09:05:43;27.63;;;8.83;;
7557;SDS011;3820;51.098;13.716;2023-11-22T09:08:10;22.20;;;10.10;;
7557;SDS011;3820;51.098;13.716;2023-11-22T09:10:50;23.10;;;9.77;;
7557;SDS011;3820;51.098;13.716;2023-11-22T09:13:17;25.03;;;9.77;;
7557;SDS011;3820;51.098;13.716;2023-11-22T09:15:46;16.50;;;7.83;;
7557;SDS011;3820;51.098;13.716;2023-11-22T09:18:13;23.30;;;9.40;;
7557;SDS011;3820;51.098;13.716;2023-11-22T09:20:41;19.90;;;9.43;;
7557;SDS011;3820;51.098;13.716;2023-11-22T09:23:11;16.87;;;8.27;;
7557;SDS011;3820;51.098;13.716;2023-11-22T09:25:40;24.23;;;9.37;;
7557;SDS011;3820;51.098;13.716;2023-11-22T09:28:07;18.03;;;8.57;;
7557;SDS011;3820;51.098;13.716;2023-11-22T09:30:35;18.17;;;9.40;;
7557;SDS011;3820;51.098;13.716;2023-11-22T09:33:05;21.53;;;8.37;;
7557;SDS011;3820;51.098;13.716;2023-11-22T09:35:37;17.13;;;8.43;;
7557;SDS011;3820;51.098;13.716;2023-11-22T09:38:05;16.97;;;9.00;;
7557;SDS011;3820;51.098;13.716;2023-11-22T09:43:10;19.20;;;8.90;;
7557;SDS011;3820;51.098;13.716;2023-11-22T09:45:37;17.97;;;8.83;;
7557;SDS011;3820;51.098;13.716;2023-11-22T09:48:11;18.37;;;9.47;;
7557;SDS011;3820;51.098;13.716;2023-11-22T09:53:58;17.97;;;7.70;;
7557;SDS011;3820;51.098;13.716;2023-11-22T09:56:23;16.73;;;8.13;;
7557;SDS011;3820;51.098;13.716;2023-11-22T09:58:54;18.97;;;8.60;;
7557;SDS011;3820;51.098;13.716;2023-11-22T10:01:22;15.13;;;7.67;;
7557;SDS011;3820;51.098;13.716;2023-11-22T10:03:49;18.13;;;8.37;;
7557;SDS011;3820;51.098;13.716;2023-11-22T10:06:17;19.80;;;7.80;;
7557;SDS011;3820;51.098;13.716;2023-11-22T10:08:44;19.93;;;9.03;;
7557;SDS011;3820;51.098;13.716;2023-11-22T10:11:17;19.13;;;7.67;;
7557;SDS011;3820;51.098;13.716;2023-11-22T10:13:47;14.40;;;8.23;;
7557;SDS011;3820;51.098;13.716;2023-11-22T10:16:16;17.70;;;8.30;;
7557;SDS011;3820;51.098;13.716;2023-11-22T10:18:44;15.17;;;7.53;;
7557;SDS011;3820;51.098;13.716;2023-11-22T10:23:46;19.87;;;9.57;;
7557;SDS011;3820;51.098;13.716;2023-11-22T10:26:14;16.87;;;7.67;;
7557;SDS011;3820;51.098;13.716;2023-11-22T10:28:44;16.17;;;8.30;;
7557;SDS011;3820;51.098;13.716;2023-11-22T10:31:10;15.90;;;8.00;;
7557;SDS011;3820;51.098;13.716;2023-11-22T10:33:40;16.07;;;8.17;;
7557;SDS011;3820;51.098;13.716;2023-11-22T10:36:08;13.07;;;7.17;;
7557;SDS011;3820;51.098;13.716;2023-11-22T10:38:36;22.23;;;8.80;;
7557;SDS011;3820;51.098;13.716;2023-11-22T10:41:03;16.43;;;7.67;;
7557;SDS011;3820;51.098;13.716;2023-11-22T10:43:31;17.73;;;7.10;;
7557;SDS011;3820;51.098;13.716;2023-11-22T10:46:02;19.90;;;8.53;;
7557;SDS011;3820;51.098;13.716;2023-11-22T10:48:29;16.73;;;7.37;;
7557;SDS011;3820;51.098;13.716;2023-11-22T10:50:59;13.73;;;6.43;;
7557;SDS011;3820;51.098;13.716;2023-11-22T10:53:31;13.70;;;6.27;;
7557;SDS011;3820;51.098;13.716;2023-11-22T11:01:20;14.97;;;7.03;;
7557;SDS011;3820;51.098;13.716;2023-11-22T11:06:32;12.13;;;6.07;;
7557;SDS011;3820;51.098;13.716;2023-11-22T11:09:00;14.63;;;6.43;;
7557;SDS011;3820;51.098;13.716;2023-11-22T11:11:32;11.90;;;6.17;;
7557;SDS011;3820;51.098;13.716;2023-11-22T11:14:00;12.00;;;6.03;;
7557;SDS011;3820;51.098;13.716;2023-11-22T11:16:27;11.33;;;5.47;;
7557;SDS011;3820;51.098;13.716;2023-11-22T11:18:57;12.03;;;5.80;;
7557;SDS011;3820;51.098;13.716;2023-11-22T11:21:24;14.80;;;5.77;;
7557;SDS011;3820;51.098;13.716;2023-11-22T11:23:52;12.27;;;5.87;;
7557;SDS011;3820;51.098;13.716;2023-11-22T11:26:24;10.87;;;5.70;;
7557;SDS011;3820;51.098;13.716;2023-11-22T11:28:52;12.00;;;5.47;;
7557;SDS011;3820;51.098;13.716;2023-11-22T11:31:23;14.73;;;6.33;;
7557;SDS011;3820;51.098;13.716;2023-11-22T11:36:27;13.33;;;6.60;;
7557;SDS011;3820;51.098;13.716;2023-11-22T11:38:55;12.13;;;6.30;;
7557;SDS011;3820;51.098;13.716;2023-11-22T11:41:27;11.10;;;5.50;;
7557;SDS011;3820;51.098;13.716;2023-11-22T11:44:03;10.97;;;5.87;;
7557;SDS011;3820;51.098;13.716;2023-11-22T11:46:31;14.80;;;5.80;;
7557;SDS011;3820;51.098;13.716;2023-11-22T11:48:57;9.23;;;5.03;;
7557;SDS011;3820;51.098;13.716;2023-11-22T11:51:25;10.73;;;5.23;;
7557;SDS011;3820;51.098;13.716;2023-11-22T11:53:54;8.90;;;5.17;;
7557;SDS011;3820;51.098;13.716;2023-11-22T11:56:21;11.87;;;5.43;;
7557;SDS011;3820;51.098;13.716;2023-11-22T11:58:49;10.17;;;4.97;;
7557;SDS011;3820;51.098;13.716;2023-11-22T12:01:17;9.83;;;5.13;;
7557;SDS011;3820;51.098;13.716;2023-11-22T12:03:44;11.63;;;5.63;;
7557;SDS011;3820;51.098;13.716;2023-11-22T12:06:14;10.80;;;5.60;;
7557;SDS011;3820;51.098;13.716;2023-11-22T12:08:41;10.20;;;4.83;;
7557;SDS011;3820;51.098;13.716;2023-11-22T12:11:08;9.43;;;5.27;;
7557;SDS011;3820;51.098;13.716;2023-11-22T12:13:39;12.20;;;5.13;;
7557;SDS011;3820;51.098;13.716;2023-11-22T12:16:09;13.93;;;6.10;;
7557;SDS011;3820;51.098;13.716;2023-11-22T12:18:41;13.37;;;5.77;;
7557;SDS011;3820;51.098;13.716;2023-11-22T12:21:10;14.03;;;5.67;;
7557;SDS011;3820;51.098;13.716;2023-11-22T12:23:40;9.63;;;5.70;;
7557;SDS011;3820;51.098;13.716;2023-11-22T12:26:11;10.70;;;5.80;;
7557;SDS011;3820;51.098;13.716;2023-11-22T12:28:40;14.63;;;6.60;;
7557;SDS011;3820;51.098;13.716;2023-11-22T12:31:18;12.77;;;6.30;;
7557;SDS011;3820;51.098;13.716;2023-11-22T12:33:45;10.93;;;5.53;;
7557;SDS011;3820;51.098;13.716;2023-11-22T12:36:17;9.57;;;5.27;;
7557;SDS011;3820;51.098;13.716;2023-11-22T12:38:44;10.50;;;5.30;;
7557;SDS011;3820;51.098;13.716;2023-11-22T12:41:11;11.30;;;5.93;;
7557;SDS011;3820;51.098;13.716;2023-11-22T12:43:38;11.40;;;5.47;;
7557;SDS011;3820;51.098;13.716;2023-11-22T12:46:16;10.00;;;6.17;;
7557;SDS011;3820;51.098;13.716;2023-11-22T12:48:44;10.77;;;5.47;;
7557;SDS011;3820;51.098;13.716;2023-11-22T12:51:15;10.03;;;4.90;;
7557;SDS011;3820;51.098;13.716;2023-11-22T12:53:45;10.60;;;5.07;;
7557;SDS011;3820;51.098;13.716;2023-11-22T12:56:12;10.10;;;4.70;;
7557;SDS011;3820;51.098;13.716;2023-11-22T12:58:39;9.63;;;5.33;;
7557;SDS011;3820;51.098;13.716;2023-11-22T13:01:06;9.60;;;4.63;;
7557;SDS011;3820;51.098;13.716;2023-11-22T13:03:33;9.40;;;4.83;;
7557;SDS011;3820;51.098;13.716;2023-11-22T13:06:00;8.97;;;4.67;;
7557;SDS011;3820;51.098;13.716;2023-11-22T13:08:27;9.13;;;4.80;;
7557;SDS011;3820;51.098;13.716;2023-11-22T13:10:56;8.23;;;4.47;;
7557;SDS011;3820;51.098;13.716;2023-11-22T13:13:26;8.73;;;4.40;;
7557;SDS011;3820;51.098;13.716;2023-11-22T13:15:54;8.80;;;4.80;;
7557;SDS011;3820;51.098;13.716;2023-11-22T13:18:21;8.73;;;4.60;;
7557;SDS011;3820;51.098;13.716;2023-11-22T13:20:48;10.00;;;4.50;;
7557;SDS011;3820;51.098;13.716;2023-11-22T13:23:16;9.60;;;4.80;;
7557;SDS011;3820;51.098;13.716;2023-11-22T13:25:44;9.30;;;5.43;;
7557;SDS011;3820;51.098;13.716;2023-11-22T13:28:12;11.77;;;5.20;;
7557;SDS011;3820;51.098;13.716;2023-11-22T13:30:43;9.43;;;4.60;;
7557;SDS011;3820;51.098;13.716;2023-11-22T13:33:09;8.03;;;4.13;;
7557;SDS011;3820;51.098;13.716;2023-11-22T13:35:38;8.80;;;4.90;;
7557;SDS011;3820;51.098;13.716;2023-11-22T13:38:05;9.87;;;5.57;;
7557;SDS011;3820;51.098;13.716;2023-11-22T13:40:37;8.40;;;4.90;;
7557;SDS011;3820;51.098;13.716;2023-11-22T13:43:11;6.97;;;4.23;;
7557;SDS011;3820;51.098;13.716;2023-11-22T13:45:41;9.90;;;4.83;;
7557;SDS011;3820;51.098;13.716;2023-11-22T13:48:08;9.20;;;4.57;;
7557;SDS011;3820;51.098;13.716;2023-11-22T13:50:36;10.13;;;4.43;;
7557;SDS011;3820;51.098;13.716;2023-11-22T13:53:04;11.03;;;4.93;;
7557;SDS011;3820;51.098;13.716;2023-11-22T13:55:31;8.30;;;4.87;;
7557;SDS011;3820;51.098;13.716;2023-11-22T13:57:58;8.90;;;4.83;;
7557;SDS011;3820;51.098;13.716;2023-11-22T14:00:29;8.70;;;4.23;;
7557;SDS011;3820;51.098;13.716;2023-11-22T14:03:01;9.37;;;5.53;;
7557;SDS011;3820;51.098;13.716;2023-11-22T14:05:34;8.60;;;5.03;;
7557;SDS011;3820;51.098;13.716;2023-11-22T14:08:04;8.87;;;5.20;;
7557;SDS011;3820;51.098;13.716;2023-11-22T14:10:32;9.57;;;5.10;;
7557;SDS011;3820;51.098;13.716;2023-11-22T14:12:59;8.00;;;4.97;;
7557;SDS011;3820;51.098;13.716;2023-11-22T14:15:27;13.10;;;6.13;;
7557;SDS011;3820;51.098;13.716;2023-11-22T14:17:57;11.67;;;5.30;;
7557;SDS011;3820;51.098;13.716;2023-11-22T14:20:24;9.23;;;5.10;;
7557;SDS011;3820;51.098;13.716;2023-11-22T14:22:51;10.43;;;5.33;;
7557;SDS011;3820;51.098;13.716;2023-11-22T14:25:18;13.03;;;5.47;;
7557;SDS011;3820;51.098;13.716;2023-11-22T14:27:46;9.40;;;5.37;;
7557;SDS011;3820;51.098;13.716;2023-11-22T14:30:19;14.93;;;8.53;;
7557;SDS011;3820;51.098;13.716;2023-11-22T14:32:47;18.10;;;9.43;;
7557;SDS011;3820;51.098;13.716;2023-11-22T14:35:15;36.77;;;14.47;;
7557;SDS011;3820;51.098;13.716;2023-11-22T14:37:44;23.43;;;9.30;;
7557;SDS011;3820;51.098;13.716;2023-11-22T14:40:11;14.93;;;7.77;;
7557;SDS011;3820;51.098;13.716;2023-11-22T14:42:42;12.67;;;5.53;;
7557;SDS011;3820;51.098;13.716;2023-11-22T14:45:11;8.87;;;4.97;;
7557;SDS011;3820;51.098;13.716;2023-11-22T14:47:39;11.07;;;5.77;;
7557;SDS011;3820;51.098;13.716;2023-11-22T14:50:07;11.63;;;5.57;;
7557;SDS011;3820;51.098;13.716;2023-11-22T14:52:37;9.77;;;4.87;;
7557;SDS011;3820;51.098;13.716;2023-11-22T14:55:05;11.50;;;5.60;;
7557;SDS011;3820;51.098;13.716;2023-11-22T14:57:32;8.77;;;4.93;;
7557;SDS011;3820;51.098;13.716;2023-11-22T14:59:58;10.90;;;6.10;;
7557;SDS011;3820;51.098;13.716;2023-11-22T15:02:26;14.10;;;5.90;;
7557;SDS011;3820;51.098;13.716;2023-11-22T15:04:53;12.33;;;6.63;;
7557;SDS011;3820;51.098;13.716;2023-11-22T15:07:19;8.67;;;4.87;;
7557;SDS011;3820;51.098;13.716;2023-11-22T15:09:46;10.40;;;6.13;;
7557;SDS011;3820;51.098;13.716;2023-11-22T15:12:13;10.33;;;5.17;;